createdAt,value
2017-06-25T00:00:28.398Z,1008.23
2017-06-25T00:01:38.329Z,1008.32
2017-06-25T00:02:48.565Z,1008.33
2017-06-25T00:03:58.818Z,1008.33
2017-06-25T00:05:09.057Z,1008.29
2017-06-25T00:06:18.663Z,1008.35
2017-06-25T00:07:28.597Z,1008.32
2017-06-25T00:08:38.519Z,1008.28
2017-06-25T00:09:48.763Z,1008.27
2017-06-25T00:10:59.002Z,1008.3
2017-06-25T00:12:09.249Z,1008.3
2017-06-25T00:13:19.489Z,1008.29
2017-06-25T00:14:29.418Z,1008.33
2017-06-25T00:15:39.037Z,1008.29
2017-06-25T00:16:48.652Z,1008.3
2017-06-25T00:17:58.889Z,1008.13
2017-06-25T00:19:08.812Z,1008.16
2017-06-25T00:20:18.428Z,1008.1
2017-06-25T00:21:28.360Z,1008.1
2017-06-25T00:22:38.607Z,1008.17
2017-06-25T00:23:48.847Z,1008.14
2017-06-25T00:24:58.775Z,1008.13
2017-06-25T00:26:08.081Z,1008.15
2017-06-25T00:27:18.318Z,1008.09
2017-06-25T00:28:27.934Z,1008.03
2017-06-25T00:29:38.174Z,1008.03
2017-06-25T00:30:48.418Z,1008.01
2017-06-25T00:31:58.672Z,1008.01
2017-06-25T00:33:08.917Z,1008.03
2017-06-25T00:34:19.156Z,1008.08
2017-06-25T00:35:29.081Z,1007.98
2017-06-25T00:36:38.699Z,1008.01
2017-06-25T00:37:48.631Z,1007.95
2017-06-25T00:38:58.565Z,1007.92
2017-06-25T00:40:08.830Z,1007.9
2017-06-25T00:41:19.065Z,1007.92
2017-06-25T00:42:28.994Z,1007.99
2017-06-25T00:43:38.926Z,1007.98
2017-06-25T00:44:49.168Z,1007.98
2017-06-25T00:45:59.103Z,1007.95
2017-06-25T00:47:09.052Z,1007.93
2017-06-25T00:48:18.983Z,1007.88
2017-06-25T00:49:28.598Z,1007.91
2017-06-25T00:50:38.528Z,1007.81
2017-06-25T00:51:48.790Z,1007.82
2017-06-25T00:52:58.718Z,1007.78
2017-06-25T00:54:08.639Z,1007.82
2017-06-25T00:55:18.883Z,1007.88
2017-06-25T00:56:28.812Z,1007.85
2017-06-25T00:57:38.743Z,1007.81
2017-06-25T00:58:48.673Z,1007.8
2017-06-25T00:59:57.977Z,1007.81
2017-06-25T01:01:07.592Z,1007.78
2017-06-25T01:02:17.831Z,1007.79
2017-06-25T01:03:28.082Z,1007.81
2017-06-25T01:04:38.015Z,1007.78
2017-06-25T01:05:48.258Z,1007.77
2017-06-25T01:06:58.493Z,1007.74
2017-06-25T01:08:08.438Z,1007.7
2017-06-25T01:09:18.360Z,1007.71
2017-06-25T01:10:28.311Z,1007.64
2017-06-25T01:11:38.556Z,1007.63
2017-06-25T01:12:48.799Z,1007.6
2017-06-25T01:13:58.726Z,1007.57
2017-06-25T01:15:08.650Z,1007.58
2017-06-25T01:16:18.903Z,1007.52
2017-06-25T01:17:29.142Z,1007.51
2017-06-25T01:18:39.063Z,1007.45
2017-06-25T01:19:48.991Z,1007.45
2017-06-25T01:20:58.920Z,1007.42
2017-06-25T01:22:08.850Z,1007.42
2017-06-25T01:23:19.090Z,1007.41
2017-06-25T01:24:29.336Z,1007.42
2017-06-25T01:25:39.263Z,1007.44
2017-06-25T01:26:49.192Z,1007.39
2017-06-25T01:27:58.807Z,1007.38
2017-06-25T01:29:09.052Z,1007.38
2017-06-25T01:30:18.984Z,1007.38
2017-06-25T01:31:29.226Z,1007.4
2017-06-25T01:32:39.469Z,1007.38
2017-06-25T01:33:49.706Z,1007.36
2017-06-25T01:34:59.313Z,1007.36
2017-06-25T01:36:09.245Z,1007.35
2017-06-25T01:37:19.488Z,1007.32
2017-06-25T01:38:29.417Z,1007.32
2017-06-25T01:39:38.723Z,1007.3
2017-06-25T01:40:48.968Z,1007.31
2017-06-25T01:41:58.897Z,1007.29
2017-06-25T01:43:08.513Z,1007.32
2017-06-25T01:44:18.132Z,1007.35
2017-06-25T01:45:28.383Z,1007.35
2017-06-25T01:46:38.315Z,1007.37
2017-06-25T01:47:48.247Z,1007.37
2017-06-25T01:48:58.490Z,1007.35
2017-06-25T01:50:08.732Z,1007.39
2017-06-25T01:51:18.660Z,1007.38
2017-06-25T01:52:28.288Z,1007.35
2017-06-25T01:53:38.533Z,1007.35
2017-06-25T01:54:48.147Z,1007.33
2017-06-25T01:55:58.075Z,1007.28
2017-06-25T01:57:08.320Z,1007.3
2017-06-25T01:58:18.253Z,1007.3
2017-06-25T01:59:28.180Z,1007.32
2017-06-25T02:00:38.420Z,1007.28
2017-06-25T02:01:48.357Z,1007.31
2017-06-25T02:02:58.288Z,1007.31
2017-06-25T02:04:08.229Z,1007.29
2017-06-25T02:05:18.472Z,1007.27
2017-06-25T02:06:28.081Z,1007.25
2017-06-25T02:07:38.018Z,1007.26
2017-06-25T02:08:48.259Z,1007.27
2017-06-25T02:09:57.557Z,1007.26
2017-06-25T02:11:07.799Z,1007.25
2017-06-25T02:12:18.041Z,1007.23
2017-06-25T02:13:28.310Z,1007.23
2017-06-25T02:14:38.240Z,1007.19
2017-06-25T02:15:48.487Z,1007.24
2017-06-25T02:16:58.416Z,1007.18
2017-06-25T02:18:08.342Z,1007.2
2017-06-25T02:19:18.272Z,1007.17
2017-06-25T02:20:28.211Z,1007.16
2017-06-25T02:21:38.450Z,1007.11
2017-06-25T02:22:48.695Z,1007.09
2017-06-25T02:23:58.937Z,1007.15
2017-06-25T02:25:09.186Z,1007.09
2017-06-25T02:26:18.802Z,1007.13
2017-06-25T02:27:29.039Z,1007.11
2017-06-25T02:28:39.279Z,1007.05
2017-06-25T02:29:49.208Z,1007.09
2017-06-25T02:30:59.451Z,1007.02
2017-06-25T02:32:09.064Z,1007.06
2017-06-25T02:33:19.306Z,1007.05
2017-06-25T02:34:29.559Z,1007.03
2017-06-25T02:35:39.490Z,1007.05
2017-06-25T02:36:49.422Z,1007.03
2017-06-25T02:37:59.354Z,1007
2017-06-25T02:39:09.598Z,1007
2017-06-25T02:40:19.842Z,1007.01
2017-06-25T02:41:29.764Z,1007.02
2017-06-25T02:42:40.006Z,1006.99
2017-06-25T02:43:49.939Z,1006.99
2017-06-25T02:44:59.550Z,1006.98
2017-06-25T02:46:09.800Z,1006.99
2017-06-25T02:47:19.731Z,1007.03
2017-06-25T02:48:29.658Z,1006.97
2017-06-25T02:49:39.589Z,1006.97
2017-06-25T02:50:49.516Z,1006.93
2017-06-25T02:51:59.441Z,1006.93
2017-06-25T02:53:09.070Z,1006.94
2017-06-25T02:54:19.314Z,1006.96
2017-06-25T02:55:29.247Z,1006.96
2017-06-25T02:56:39.509Z,1006.96
2017-06-25T02:57:49.769Z,1006.95
2017-06-25T02:59:00.014Z,1007
2017-06-25T03:00:10.252Z,1006.97
2017-06-25T03:01:19.888Z,1006.92
2017-06-25T03:02:29.814Z,1006.95
2017-06-25T03:03:40.065Z,1006.93
2017-06-25T03:04:49.990Z,1006.89
2017-06-25T03:06:00.232Z,1006.93
2017-06-25T03:07:10.160Z,1006.92
2017-06-25T03:08:20.408Z,1006.89
2017-06-25T03:09:30.331Z,1006.92
2017-06-25T03:10:40.571Z,1006.93
2017-06-25T03:11:50.495Z,1006.91
2017-06-25T03:13:00.734Z,1006.91
2017-06-25T03:14:10.977Z,1006.92
2017-06-25T03:15:20.593Z,1006.91
2017-06-25T03:16:30.833Z,1006.94
2017-06-25T03:17:40.446Z,1006.95
2017-06-25T03:18:50.688Z,1006.87
2017-06-25T03:20:00.924Z,1006.86
2017-06-25T03:21:11.201Z,1006.85
2017-06-25T03:22:21.444Z,1006.85
2017-06-25T03:23:31.685Z,1006.87
2017-06-25T03:24:41.605Z,1006.86
2017-06-25T03:25:51.848Z,1006.84
2017-06-25T03:27:02.086Z,1006.81
2017-06-25T03:28:12.324Z,1006.84
2017-06-25T03:29:22.251Z,1006.84
2017-06-25T03:30:31.549Z,1006.88
2017-06-25T03:31:41.796Z,1006.84
2017-06-25T03:32:51.731Z,1006.85
2017-06-25T03:34:01.979Z,1006.86
2017-06-25T03:35:11.909Z,1006.83
2017-06-25T03:36:22.152Z,1006.81
2017-06-25T03:37:32.093Z,1006.85
2017-06-25T03:38:42.337Z,1006.76
2017-06-25T03:39:52.580Z,1006.79
2017-06-25T03:41:02.512Z,1006.77
2017-06-25T03:42:12.754Z,1006.75
2017-06-25T03:43:22.995Z,1006.8
2017-06-25T03:44:32.931Z,1006.8
2017-06-25T03:45:42.546Z,1006.76
2017-06-25T03:46:52.480Z,1006.79
2017-06-25T03:48:02.729Z,1006.85
2017-06-25T03:49:12.975Z,1006.79
2017-06-25T03:50:23.217Z,1006.8
2017-06-25T03:51:33.152Z,1006.79
2017-06-25T03:52:43.101Z,1006.74
2017-06-25T03:53:52.718Z,1006.77
2017-06-25T03:55:02.974Z,1006.75
2017-06-25T03:56:13.231Z,1006.76
2017-06-25T03:57:23.160Z,1006.8
2017-06-25T03:58:33.403Z,1006.79
2017-06-25T03:59:43.644Z,1006.74
2017-06-25T04:00:53.583Z,1006.77
2017-06-25T04:02:03.512Z,1006.75
2017-06-25T04:03:13.756Z,1006.74
2017-06-25T04:04:23.689Z,1006.72
2017-06-25T04:05:33.618Z,1006.74
2017-06-25T04:06:43.862Z,1006.71
2017-06-25T04:07:53.797Z,1006.66
2017-06-25T04:09:03.095Z,1006.64
2017-06-25T04:10:13.026Z,1006.65
2017-06-25T04:11:22.640Z,1006.65
2017-06-25T04:12:32.568Z,1006.66
2017-06-25T04:13:42.815Z,1006.62
2017-06-25T04:14:52.427Z,1006.63
2017-06-25T04:16:02.045Z,1006.61
2017-06-25T04:17:11.971Z,1006.62
2017-06-25T04:18:22.212Z,1006.64
2017-06-25T04:19:31.828Z,1006.59
2017-06-25T04:20:42.075Z,1006.53
2017-06-25T04:21:52.317Z,1006.55
2017-06-25T04:23:02.246Z,1006.53
2017-06-25T04:24:12.492Z,1006.51
2017-06-25T04:25:22.728Z,1006.5
2017-06-25T04:26:32.029Z,1006.52
2017-06-25T04:27:41.960Z,1006.5
2017-06-25T04:28:52.205Z,1006.44
2017-06-25T04:30:02.130Z,1006.39
2017-06-25T04:31:12.373Z,1006.42
2017-06-25T04:32:22.620Z,1006.36
2017-06-25T04:33:32.239Z,1006.42
2017-06-25T04:34:41.845Z,1006.43
2017-06-25T04:35:51.778Z,1006.37
2017-06-25T04:37:02.018Z,1006.38
2017-06-25T04:38:11.944Z,1006.36
2017-06-25T04:39:21.563Z,1006.4
2017-06-25T04:40:31.494Z,1006.32
2017-06-25T04:41:41.108Z,1006.33
2017-06-25T04:42:51.350Z,1006.32
2017-06-25T04:44:00.970Z,1006.3
2017-06-25T04:45:10.283Z,1006.27
2017-06-25T04:46:20.216Z,1006.25
2017-06-25T04:47:30.140Z,1006.22
2017-06-25T04:48:40.090Z,1006.22
2017-06-25T04:49:50.340Z,1006.22
2017-06-25T04:51:00.269Z,1006.21
2017-06-25T04:52:10.206Z,1006.23
2017-06-25T04:53:20.128Z,1006.21
2017-06-25T04:54:30.378Z,1006.24
2017-06-25T04:55:40.626Z,1006.22
2017-06-25T04:56:50.864Z,1006.2
2017-06-25T04:58:00.792Z,1006.15
2017-06-25T04:59:11.036Z,1006.19
2017-06-25T05:00:21.278Z,1006.16
2017-06-25T05:01:31.207Z,1006.17
2017-06-25T05:02:41.453Z,1006.15
2017-06-25T05:03:51.070Z,1006.2
2017-06-25T05:05:00.997Z,1006.17
2017-06-25T05:06:11.245Z,1006.14
2017-06-25T05:07:21.484Z,1006.13
2017-06-25T05:08:31.420Z,1006.14
2017-06-25T05:09:41.344Z,1006.11
2017-06-25T05:10:51.586Z,1006.12
2017-06-25T05:12:01.520Z,1006.13
2017-06-25T05:13:10.837Z,1006.1
2017-06-25T05:14:21.079Z,1006.08
2017-06-25T05:15:31.005Z,1006.05
2017-06-25T05:16:40.934Z,1006.05
2017-06-25T05:17:50.872Z,1006.02
2017-06-25T05:19:01.120Z,1006.04
2017-06-25T05:20:11.051Z,1005.98
2017-06-25T05:21:20.980Z,1005.99
2017-06-25T05:22:30.602Z,1005.91
2017-06-25T05:23:40.841Z,1005.9
2017-06-25T05:24:50.150Z,1005.93
2017-06-25T05:26:00.081Z,1005.91
2017-06-25T05:27:10.323Z,1005.89
2017-06-25T05:28:19.945Z,1005.94
2017-06-25T05:29:29.556Z,1005.99
2017-06-25T05:30:39.801Z,1005.94
2017-06-25T05:31:49.726Z,1005.94
2017-06-25T05:32:59.677Z,1005.95
2017-06-25T05:34:09.604Z,1005.95
2017-06-25T05:35:19.846Z,1005.93
2017-06-25T05:36:29.461Z,1005.93
2017-06-25T05:37:39.384Z,1005.94
2017-06-25T05:38:49.318Z,1005.95
2017-06-25T05:39:59.557Z,1005.95
2017-06-25T05:41:09.814Z,1005.93
2017-06-25T05:42:19.745Z,1005.94
2017-06-25T05:43:29.358Z,1006
2017-06-25T05:44:39.606Z,1006.01
2017-06-25T05:45:49.224Z,1006.05
2017-06-25T05:46:59.463Z,1005.94
2017-06-25T05:48:09.721Z,1005.97
2017-06-25T05:49:19.336Z,1005.99
2017-06-25T05:50:29.580Z,1005.92
2017-06-25T05:51:39.512Z,1005.91
2017-06-25T05:52:49.451Z,1005.93
2017-06-25T05:53:59.691Z,1005.99
2017-06-25T05:55:09.939Z,1005.95
2017-06-25T05:56:20.191Z,1005.93
2017-06-25T05:57:29.805Z,1006
2017-06-25T05:58:39.417Z,1005.9
2017-06-25T05:59:49.351Z,1005.95
2017-06-25T06:00:59.597Z,1005.92
2017-06-25T06:02:09.527Z,1005.92
2017-06-25T06:03:19.458Z,1005.96
2017-06-25T06:04:29.382Z,1005.95
2017-06-25T06:05:39.307Z,1005.94
2017-06-25T06:06:49.555Z,1005.93
2017-06-25T06:07:59.796Z,1005.89
2017-06-25T06:09:10.052Z,1005.88
2017-06-25T06:10:19.977Z,1005.98
2017-06-25T06:11:30.219Z,1005.97
2017-06-25T06:12:40.462Z,1005.89
2017-06-25T06:13:50.387Z,1005.96
2017-06-25T06:15:00.626Z,1005.89
2017-06-25T06:16:10.247Z,1005.84
2017-06-25T06:17:20.481Z,1005.84
2017-06-25T06:18:30.091Z,1005.87
2017-06-25T06:19:40.343Z,1005.88
2017-06-25T06:20:50.276Z,1005.9
2017-06-25T06:21:59.897Z,1005.85
2017-06-25T06:23:09.514Z,1005.87
2017-06-25T06:24:19.451Z,1005.96
2017-06-25T06:25:29.066Z,1005.88
2017-06-25T06:26:38.990Z,1005.88
2017-06-25T06:27:48.945Z,1005.86
2017-06-25T06:28:58.560Z,1005.91
2017-06-25T06:30:08.176Z,1005.96
2017-06-25T06:31:18.429Z,1005.96
2017-06-25T06:32:28.367Z,1005.95
2017-06-25T06:33:38.606Z,1005.95
2017-06-25T06:34:48.529Z,1005.95
2017-06-25T06:35:58.778Z,1005.91
2017-06-25T06:37:09.026Z,1005.93
2017-06-25T06:38:18.651Z,1005.88
2017-06-25T06:39:28.901Z,1005.93
2017-06-25T06:40:38.510Z,1005.93
2017-06-25T06:41:48.754Z,1006.03
2017-06-25T06:42:58.370Z,1006.02
2017-06-25T06:44:08.611Z,1006
2017-06-25T06:45:18.225Z,1005.99
2017-06-25T06:46:28.152Z,1005.96
2017-06-25T06:47:38.404Z,1006
2017-06-25T06:48:48.650Z,1006.03
2017-06-25T06:49:58.578Z,1006.03
2017-06-25T06:51:08.513Z,1006.02
2017-06-25T06:52:18.809Z,1005.96
2017-06-25T06:53:28.730Z,1005.95
2017-06-25T06:54:38.974Z,1005.98
2017-06-25T06:55:48.905Z,1005.99
2017-06-25T06:56:58.831Z,1005.93
2017-06-25T06:58:08.764Z,1005.92
2017-06-25T06:59:18.698Z,1005.9
2017-06-25T07:00:28.623Z,1005.83
2017-06-25T07:01:38.555Z,1005.76
2017-06-25T07:02:48.794Z,1005.78
2017-06-25T07:03:58.413Z,1005.75
2017-06-25T07:05:08.348Z,1005.75
2017-06-25T07:06:18.303Z,1005.8
2017-06-25T07:07:28.240Z,1005.76
2017-06-25T07:08:37.539Z,1005.76
2017-06-25T07:09:47.153Z,1005.72
2017-06-25T07:10:56.771Z,1005.7
2017-06-25T07:12:07.037Z,1005.69
2017-06-25T07:13:17.281Z,1005.69
2017-06-25T07:14:27.215Z,1005.67
2017-06-25T07:15:37.473Z,1005.68
2017-06-25T07:16:47.405Z,1005.69
2017-06-25T07:17:57.329Z,1005.71
2017-06-25T07:19:07.257Z,1005.67
2017-06-25T07:20:17.502Z,1005.69
2017-06-25T07:21:27.428Z,1005.73
2017-06-25T07:22:37.364Z,1005.74
2017-06-25T07:23:47.306Z,1005.7
2017-06-25T07:24:57.231Z,1005.73
2017-06-25T07:26:07.155Z,1005.76
2017-06-25T07:27:17.079Z,1005.65
2017-06-25T07:28:27.004Z,1005.7
2017-06-25T07:29:36.629Z,1005.66
2017-06-25T07:30:45.622Z,1005.59
2017-06-25T07:31:55.556Z,1005.66
2017-06-25T07:33:05.485Z,1005.61
2017-06-25T07:34:15.723Z,1005.62
2017-06-25T07:35:25.967Z,1005.63
2017-06-25T07:36:36.207Z,1005.57
2017-06-25T07:37:46.451Z,1005.53
2017-06-25T07:38:56.685Z,1005.61
2017-06-25T07:40:06.935Z,1005.62
2017-06-25T07:41:16.864Z,1005.5
2017-06-25T07:42:27.108Z,1005.48
2017-06-25T07:43:37.351Z,1005.48
2017-06-25T07:44:47.283Z,1005.44
2017-06-25T07:45:57.211Z,1005.48
2017-06-25T07:47:07.141Z,1005.49
2017-06-25T07:48:17.081Z,1005.54
2017-06-25T07:49:27.346Z,1005.51
2017-06-25T07:50:36.962Z,1005.57
2017-06-25T07:51:47.214Z,1005.56
2017-06-25T07:52:57.460Z,1005.55
2017-06-25T07:54:07.710Z,1005.55
2017-06-25T07:55:17.012Z,1005.56
2017-06-25T07:56:27.251Z,1005.59
2017-06-25T07:57:37.491Z,1005.6
2017-06-25T07:58:47.110Z,1005.68
2017-06-25T07:59:57.039Z,1005.57
2017-06-25T08:01:06.973Z,1005.66
2017-06-25T08:02:16.281Z,1005.72
2017-06-25T08:03:26.532Z,1005.69
2017-06-25T08:04:36.144Z,1005.72
2017-06-25T08:05:45.763Z,1005.8
2017-06-25T08:06:55.380Z,1005.77
2017-06-25T08:08:05.311Z,1005.77
2017-06-25T08:09:15.556Z,1005.72
2017-06-25T08:10:25.175Z,1005.76
2017-06-25T08:11:34.790Z,1005.74
2017-06-25T08:12:44.724Z,1005.84
2017-06-25T08:13:54.337Z,1005.67
2017-06-25T08:15:04.580Z,1005.67
2017-06-25T08:16:14.201Z,1005.59
2017-06-25T08:17:23.817Z,1005.64
2017-06-25T08:18:34.059Z,1005.59
2017-06-25T08:19:43.986Z,1005.61
2017-06-25T08:20:53.919Z,1005.56
2017-06-25T08:22:03.845Z,1005.6
2017-06-25T08:23:14.094Z,1005.59
2017-06-25T08:24:24.029Z,1005.58
2017-06-25T08:25:33.960Z,1005.64
2017-06-25T08:26:43.582Z,1005.6
2017-06-25T08:27:53.200Z,1005.64
2017-06-25T08:29:03.132Z,1005.61
2017-06-25T08:30:13.060Z,1005.73
2017-06-25T08:31:22.990Z,1005.65
2017-06-25T08:32:32.931Z,1005.61
2017-06-25T08:33:43.183Z,1005.67
2017-06-25T08:34:53.428Z,1005.56
2017-06-25T08:36:03.668Z,1005.62
2017-06-25T08:37:13.596Z,1005.74
2017-06-25T08:38:23.212Z,1005.6
2017-06-25T08:39:33.132Z,1005.61
2017-06-25T08:40:43.375Z,1005.57
2017-06-25T08:41:53.623Z,1005.59
2017-06-25T08:43:03.550Z,1005.58
2017-06-25T08:44:13.481Z,1005.51
2017-06-25T08:45:23.411Z,1005.67
2017-06-25T08:46:33.649Z,1005.65
2017-06-25T08:47:43.586Z,1005.56
2017-06-25T08:48:53.823Z,1005.59
2017-06-25T08:50:03.761Z,1005.64
2017-06-25T08:51:13.697Z,1005.56
2017-06-25T08:52:23.627Z,1005.62
2017-06-25T08:53:33.242Z,1005.58
2017-06-25T08:54:43.484Z,1005.58
2017-06-25T08:55:53.440Z,1005.62
2017-06-25T08:57:03.372Z,1005.66
2017-06-25T08:58:13.615Z,1005.62
2017-06-25T08:59:23.541Z,1005.63
2017-06-25T09:00:32.846Z,1005.65
2017-06-25T09:01:42.778Z,1005.62
2017-06-25T09:02:52.710Z,1005.67
2017-06-25T09:04:02.017Z,1005.67
2017-06-25T09:05:12.260Z,1005.6
2017-06-25T09:06:22.187Z,1005.59
2017-06-25T09:07:32.425Z,1005.56
2017-06-25T09:08:42.354Z,1005.49
2017-06-25T09:09:52.284Z,1005.53
2017-06-25T09:11:02.523Z,1005.5
2017-06-25T09:12:12.764Z,1005.53
2017-06-25T09:13:22.696Z,1005.54
2017-06-25T09:14:32.621Z,1005.57
2017-06-25T09:15:42.552Z,1005.43
2017-06-25T09:16:52.481Z,1005.48
2017-06-25T09:18:02.724Z,1005.53
2017-06-25T09:19:12.341Z,1005.49
2017-06-25T09:20:22.268Z,1005.53
2017-06-25T09:21:32.508Z,1005.61
2017-06-25T09:22:42.133Z,1005.6
2017-06-25T09:23:52.070Z,1005.62
2017-06-25T09:25:02.006Z,1005.65
2017-06-25T09:26:11.623Z,1005.56
2017-06-25T09:27:21.870Z,1005.64
2017-06-25T09:28:31.863Z,1005.64
2017-06-25T09:29:41.488Z,1005.58
2017-06-25T09:30:51.409Z,1005.55
2017-06-25T09:32:01.027Z,1005.52
2017-06-25T09:33:10.642Z,1005.56
2017-06-25T09:34:20.893Z,1005.62
2017-06-25T09:35:30.826Z,1005.64
2017-06-25T09:36:40.760Z,1005.69
2017-06-25T09:37:50.695Z,1005.63
2017-06-25T09:39:00.626Z,1005.68
2017-06-25T09:40:10.879Z,1005.63
2017-06-25T09:41:20.809Z,1005.65
2017-06-25T09:42:30.740Z,1005.65
2017-06-25T09:43:40.664Z,1005.67
2017-06-25T09:44:50.906Z,1005.7
2017-06-25T09:46:01.151Z,1005.85
2017-06-25T09:47:11.081Z,1005.75
2017-06-25T09:48:20.710Z,1005.71
2017-06-25T09:49:30.654Z,1005.75
2017-06-25T09:50:40.278Z,1005.83
2017-06-25T09:51:50.207Z,1005.76
2017-06-25T09:53:00.141Z,1005.74
2017-06-25T09:54:09.756Z,1005.71
2017-06-25T09:55:19.692Z,1005.74
2017-06-25T09:56:29.622Z,1005.68
2017-06-25T09:57:39.548Z,1005.73
2017-06-25T09:58:49.794Z,1005.82
2017-06-25T09:59:59.727Z,1005.85
2017-06-25T10:01:09.348Z,1005.77
2017-06-25T10:02:19.594Z,1005.92
2017-06-25T10:03:29.524Z,1005.8
2017-06-25T10:04:39.451Z,1005.72
2017-06-25T10:05:49.090Z,1005.71
2017-06-25T10:06:59.335Z,1005.73
2017-06-25T10:08:09.590Z,1005.62
2017-06-25T10:09:19.828Z,1005.62
2017-06-25T10:10:29.445Z,1005.66
2017-06-25T10:11:39.699Z,1005.66
2017-06-25T10:12:49.317Z,1005.61
2017-06-25T10:13:59.561Z,1005.63
2017-06-25T10:15:09.183Z,1005.59
2017-06-25T10:16:19.109Z,1005.56
2017-06-25T10:17:29.352Z,1005.53
2017-06-25T10:18:39.589Z,1005.45
2017-06-25T10:19:49.832Z,1005.52
2017-06-25T10:20:59.762Z,1005.49
2017-06-25T10:22:10.007Z,1005.51
2017-06-25T10:23:19.319Z,1005.49
2017-06-25T10:24:29.261Z,1005.56
2017-06-25T10:25:39.502Z,1005.47
2017-06-25T10:26:49.431Z,1005.45
2017-06-25T10:27:59.673Z,1005.42
2017-06-25T10:29:09.916Z,1005.47
2017-06-25T10:30:19.534Z,1005.48
2017-06-25T10:31:29.777Z,1005.6
2017-06-25T10:32:39.391Z,1005.53
2017-06-25T10:33:49.317Z,1005.57
2017-06-25T10:34:59.556Z,1005.52
2017-06-25T10:36:09.803Z,1005.49
2017-06-25T10:37:20.050Z,1005.5
2017-06-25T10:38:29.972Z,1005.43
2017-06-25T10:39:39.585Z,1005.46
2017-06-25T10:40:49.513Z,1005.42
2017-06-25T10:41:59.751Z,1005.45
2017-06-25T10:43:09.995Z,1005.45
2017-06-25T10:44:19.928Z,1005.48
2017-06-25T10:45:29.858Z,1005.55
2017-06-25T10:46:39.165Z,1005.58
2017-06-25T10:47:48.785Z,1005.58
2017-06-25T10:48:59.031Z,1005.68
2017-06-25T10:50:08.959Z,1005.53
2017-06-25T10:51:18.577Z,1005.56
2017-06-25T10:52:28.513Z,1005.53
2017-06-25T10:53:38.440Z,1005.51
2017-06-25T10:54:48.373Z,1005.48
2017-06-25T10:55:58.301Z,1005.51
2017-06-25T10:57:08.232Z,1005.45
2017-06-25T10:58:17.883Z,1005.52
2017-06-25T10:59:27.817Z,1005.44
2017-06-25T11:00:37.432Z,1005.55
2017-06-25T11:01:47.666Z,1005.41
2017-06-25T11:02:56.977Z,1005.4
2017-06-25T11:04:07.218Z,1005.42
2017-06-25T11:05:17.148Z,1005.4
2017-06-25T11:06:27.393Z,1005.46
2017-06-25T11:07:37.636Z,1005.38
2017-06-25T11:08:47.875Z,1005.34
2017-06-25T11:09:57.806Z,1005.37
2017-06-25T11:11:07.421Z,1005.35
2017-06-25T11:12:17.041Z,1005.42
2017-06-25T11:13:27.285Z,1005.43
2017-06-25T11:14:36.592Z,1005.29
2017-06-25T11:15:46.526Z,1005.4
2017-06-25T11:16:56.463Z,1005.35
2017-06-25T11:18:06.718Z,1005.33
2017-06-25T11:19:16.329Z,1005.32
2017-06-25T11:20:26.571Z,1005.38
2017-06-25T11:21:36.188Z,1005.43
2017-06-25T11:22:46.444Z,1005.4
2017-06-25T11:23:56.379Z,1005.31
2017-06-25T11:25:06.001Z,1005.3
2017-06-25T11:26:14.991Z,1005.3
2017-06-25T11:27:25.232Z,1005.23
2017-06-25T11:28:35.478Z,1005.12
2017-06-25T11:29:45.416Z,1005.12
2017-06-25T11:30:55.344Z,1005.2
2017-06-25T11:32:05.584Z,1005.15
2017-06-25T11:33:15.525Z,1005.12
2017-06-25T11:34:25.462Z,1005.19
2017-06-25T11:35:35.400Z,1005.2
2017-06-25T11:36:45.328Z,1005.23
2017-06-25T11:37:55.259Z,1005.18
2017-06-25T11:39:05.188Z,1005.19
2017-06-25T11:40:15.432Z,1005.28
2017-06-25T11:41:25.362Z,1005.21
2017-06-25T11:42:35.292Z,1005.26
2017-06-25T11:43:45.225Z,1005.17
2017-06-25T11:44:55.500Z,1005.22
2017-06-25T11:46:05.426Z,1005.17
2017-06-25T11:47:15.355Z,1005.12
2017-06-25T11:48:24.976Z,1005.04
2017-06-25T11:49:34.911Z,1005.09
2017-06-25T11:50:44.533Z,1005.07
2017-06-25T11:51:54.464Z,1005
2017-06-25T11:53:03.767Z,1004.97
2017-06-25T11:54:13.699Z,1005.02
2017-06-25T11:55:23.633Z,1005.02
2017-06-25T11:56:33.882Z,1004.99
2017-06-25T11:57:44.122Z,1005.02
2017-06-25T11:58:54.359Z,1004.99
2017-06-25T12:00:03.976Z,1005.08
2017-06-25T12:01:13.909Z,1005.11
2017-06-25T12:02:23.873Z,1005.07
2017-06-25T12:03:33.494Z,1005.02
2017-06-25T12:04:43.730Z,1005.09
2017-06-25T12:05:53.346Z,1004.98
2017-06-25T12:07:02.995Z,1005.05
2017-06-25T12:08:12.925Z,1004.98
2017-06-25T12:09:22.548Z,1005.11
2017-06-25T12:10:32.474Z,1005.13
2017-06-25T12:11:42.090Z,1005.22
2017-06-25T12:12:52.020Z,1005.3
2017-06-25T12:14:01.955Z,1005.2
2017-06-25T12:15:11.579Z,1005.35
2017-06-25T12:16:21.826Z,1005.46
2017-06-25T12:17:32.076Z,1005.53
2017-06-25T12:18:41.999Z,1005.65
2017-06-25T12:19:51.614Z,1005.77
2017-06-25T12:21:01.542Z,1006
2017-06-25T12:22:10.884Z,1006.03
2017-06-25T12:23:21.178Z,1006.11
2017-06-25T12:24:30.847Z,1006.04
2017-06-25T12:25:41.134Z,1005.97
2017-06-25T12:26:51.432Z,1005.94
2017-06-25T12:28:01.713Z,1006
2017-06-25T12:29:11.992Z,1006.05
2017-06-25T12:30:21.630Z,1006
